Saint Charles — WDF2626 — position and weather

sailwx.info

Track history (hours):
 
Tides and Currents Weather Stations Pressure Air Temp Water Temp Dewpoint Dewpoint Depression Visibility Wind Speed Wind Dir Waves Ship Positions

Saint Charles

Owner: Higman Barge Lines, Inc, Orange, TX. More information available from US FCC via Universal Licensing System and Coast Guard Vessel Documentation Center.

Last reported at 2018-Feb-19 11:08 UTC. Time now 2018-Feb-20 13:24 UTC.
Position N 29°34' W 090°23'.

Length 26 m; draft 3.3 m.

Type: Towing. MMSI: 367430030.

Date/timePositionNaut miles runAvg speedWind from/ knotsBaromVisibWave heightAir tempDewpointWater temp
2018-Feb-19 11:08N 29°34' W 090°23'1 3.6
2018-Feb-19 10:55N 29°33' W 090°24'1 2.0
2018-Feb-19 10:30N 29°33' W 090°25'0 0.1
2018-Feb-19 09:59N 29°33' W 090°25'3 4.0
2018-Feb-19 09:17N 29°33' W 090°28'1 4.5
2018-Feb-19 09:01N 29°34' W 090°30'2 4.4
2018-Feb-19 08:30N 29°34' W 090°32'2 4.1
2018-Feb-19 08:00N 29°34' W 090°34'2 4.2
2018-Feb-19 07:30N 29°35' W 090°37'2 3.5
2018-Feb-19 07:00N 29°35' W 090°38'2 4.3
2018-Feb-19 06:30N 29°36' W 090°41'2 3.2
2018-Feb-19 06:01N 29°36' W 090°43'2 4.0
2018-Feb-19 05:30N 29°34' W 090°43'2 3.8
2018-Feb-19 05:00N 29°34' W 090°45'1 1.6
2018-Feb-19 04:31N 29°33' W 090°45'0 0.0
2018-Feb-19 04:00N 29°33' W 090°45'0 0.0
2018-Feb-19 03:31N 29°33' W 090°45'0 0.0
2018-Feb-19 03:00N 29°33' W 090°45'0 0.1
2018-Feb-19 02:30N 29°33' W 090°45'0 0.9
2018-Feb-19 02:00N 29°32' W 090°46'2 3.6
2018-Feb-19 01:30N 29°32' W 090°48'2 4.7
2018-Feb-19 01:00N 29°32' W 090°50'3 4.6
2018-Feb-19 00:26N 29°33' W 090°53'2 4.9
2018-Feb-18 23:59N 29°34' W 090°56'3 4.1
2018-Feb-18 23:21N 29°35' W 090°58'55 2.1
2018-Feb-17 21:01N 29°50' W 091°59'0 4.5
2018-Feb-17 21:00N 29°50' W 091°59'2 4.2
2018-Feb-17 20:30N 29°49' W 092°01'2 4.5
2018-Feb-17 20:00N 29°49' W 092°04'2 4.4
2018-Feb-17 19:30N 29°48' W 092°06'2 4.2
2018-Feb-17 19:00N 29°47' W 092°08'2 4.2
2018-Feb-17 18:31N 29°47' W 092°11'2 4.9
2018-Feb-17 18:00N 29°48' W 092°13'2 4.9
2018-Feb-17 17:30N 29°49' W 092°16'2 4.4
2018-Feb-17 17:00N 29°50' W 092°18'3 4.5
2018-Feb-17 16:18N 29°51' W 092°21'21 1.5
2018-Feb-17 01:56N 29°58' W 092°45'2 4.6
2018-Feb-17 01:27N 29°58' W 092°47'2 4.7
2018-Feb-17 01:00N 29°58' W 092°50'3 4.5
2018-Feb-17 00:23N 29°57' W 092°53'4 4.2
2018-Feb-16 23:21N 29°56' W 092°58'2 4.4
2018-Feb-16 22:53N 29°56' W 092°60'2 4.4
2018-Feb-16 22:24N 29°56' W 093°02'2 4.4
2018-Feb-16 22:00N 29°56' W 093°04'2 4.3
2018-Feb-16 21:30N 29°56' W 093°07'2 4.1
2018-Feb-16 21:00N 29°56' W 093°09'2 4.0
2018-Feb-16 20:30N 29°57' W 093°11'2 4.0
2018-Feb-16 20:00N 29°59' W 093°12'2 3.8
2018-Feb-16 19:30N 30°00' W 093°14'1 2.7
2018-Feb-16 19:00N 30°02' W 093°14'1 1.6
2018-Feb-16 18:30N 30°02' W 093°15'2 3.3
2018-Feb-16 18:00N 30°04' W 093°16'2 3.4
2018-Feb-16 17:30N 30°05' W 093°17'1 3.0
2018-Feb-16 17:00N 30°06' W 093°18'1 2.4
2018-Feb-16 16:30N 30°06' W 093°20'3 5.2
2018-Feb-16 16:01N 30°09' W 093°20'2 4.6
2018-Feb-16 15:30N 30°11' W 093°19'0 0.5
2018-Feb-16 15:00N 30°11' W 093°19'0 0.2
2018-Feb-16 14:29N 30°11' W 093°19'0 0.0
2018-Feb-16 14:00N 30°11' W 093°19'0 0.0
2018-Feb-16 13:31N 30°11' W 093°19'0 0.0
2018-Feb-16 13:00N 30°11' W 093°19'0 0.0
2018-Feb-16 12:30N 30°11' W 093°19'0 0.0
2018-Feb-16 12:00N 30°11' W 093°19'0 0.0
2018-Feb-16 11:30N 30°11' W 093°19'0 0.0
2018-Feb-16 11:00N 30°11' W 093°19'0 0.0
2018-Feb-16 10:30N 30°11' W 093°19'0 0.0
2018-Feb-16 10:00N 30°11' W 093°19'0 0.0
2018-Feb-16 09:30N 30°11' W 093°19'0 0.0
2018-Feb-16 09:00N 30°11' W 093°19'0 0.0
2018-Feb-16 08:30N 30°11' W 093°19'0 0.0
2018-Feb-16 08:00N 30°11' W 093°19'0 0.0
2018-Feb-16 07:30N 30°11' W 093°19'0 0.0
2018-Feb-16 07:00N 30°11' W 093°19'0 0.0
2018-Feb-16 06:31N 30°11' W 093°19'0 0.0
2018-Feb-16 06:01N 30°11' W 093°19'0 0.0
2018-Feb-16 05:30N 30°11' W 093°19'0 0.0
2018-Feb-16 05:01N 30°11' W 093°19'0 0.0
2018-Feb-16 04:28N 30°11' W 093°19'0 0.0
2018-Feb-16 04:00N 30°11' W 093°19'0 0.0
2018-Feb-16 03:30N 30°11' W 093°19'0 0.0
2018-Feb-16 02:54N 30°11' W 093°19'0 0.0
2018-Feb-16 02:30N 30°11' W 093°19'0 0.0
2018-Feb-16 02:01N 30°11' W 093°19'0 0.0
2018-Feb-16 01:30N 30°11' W 093°19'0 0.0
2018-Feb-16 01:00N 30°11' W 093°19'0 0.0
2018-Feb-16 00:29N 30°11' W 093°19'0 0.0
2018-Feb-16 00:00N 30°11' W 093°19'0 0.0
2018-Feb-15 23:30N 30°11' W 093°19'0 0.0
2018-Feb-15 23:00N 30°11' W 093°19'0 0.0
2018-Feb-15 22:30N 30°11' W 093°19'0 0.0
2018-Feb-15 21:59N 30°11' W 093°19'0 0.1
2018-Feb-15 21:30N 30°11' W 093°19'1 1.3
2018-Feb-15 21:00N 30°10' W 093°19'3 6.2
2018-Feb-15 20:30N 30°08' W 093°20'3 5.1
2018-Feb-15 20:01N 30°05' W 093°20'1 2.2
2018-Feb-15 19:31N 30°04' W 093°21'0 0.0
2018-Feb-15 19:00N 30°04' W 093°21'0 0.0
2018-Feb-15 18:30N 30°04' W 093°21'0 0.0
2018-Feb-15 18:00N 30°04' W 093°21'0 0.0
2018-Feb-15 17:30N 30°04' W 093°21'0 0.0
2018-Feb-15 17:00N 30°04' W 093°21'0 0.0
2018-Feb-15 16:31N 30°04' W 093°21'0 0.0
2018-Feb-15 16:00N 30°04' W 093°21'0 0.0
2018-Feb-15 15:30N 30°04' W 093°21'0 0.0
2018-Feb-15 15:00N 30°04' W 093°21'0 0.0
2018-Feb-15 14:30N 30°04' W 093°21'0 0.0
2018-Feb-15 14:01N 30°04' W 093°21'0 0.0
2018-Feb-15 13:30N 30°04' W 093°21'0 0.0
2018-Feb-15 13:00N 30°04' W 093°21'0 0.0
2018-Feb-15 12:30N 30°04' W 093°21'0 0.0
2018-Feb-15 12:00N 30°04' W 093°21'0 0.0
2018-Feb-15 11:30N 30°04' W 093°21'0 0.0
2018-Feb-15 11:00N 30°04' W 093°21'0 0.0
2018-Feb-15 10:30N 30°04' W 093°21'0 0.0
2018-Feb-15 10:01N 30°04' W 093°21'0 0.0
2018-Feb-15 09:30N 30°04' W 093°21'0 0.0
2018-Feb-15 09:00N 30°04' W 093°21'0 0.0
2018-Feb-15 08:30N 30°04' W 093°21'0 0.0
2018-Feb-15 08:00N 30°04' W 093°21'0 0.0
2018-Feb-15 07:30N 30°04' W 093°21'0 0.0
2018-Feb-15 07:00N 30°04' W 093°21'0 0.0
2018-Feb-15 06:30N 30°04' W 093°21'0 0.0
2018-Feb-15 06:00N 30°04' W 093°21'0 0.0
2018-Feb-15 05:30N 30°04' W 093°21'0 0.0
2018-Feb-15 05:00N 30°04' W 093°21'0 0.0
2018-Feb-15 04:30N 30°04' W 093°21'0 0.0
2018-Feb-15 04:00N 30°04' W 093°21'0 0.0
2018-Feb-15 03:30N 30°04' W 093°21'0 0.0
2018-Feb-15 03:00N 30°04' W 093°21'0 0.0
2018-Feb-15 02:30N 30°04' W 093°21'0 0.0
2018-Feb-15 02:00N 30°04' W 093°21'0 0.0
2018-Feb-15 01:30N 30°04' W 093°21'0 0.0
2018-Feb-15 01:01N 30°04' W 093°21'0 0.0
2018-Feb-15 00:31N 30°04' W 093°21'0 0.0
2018-Feb-15 00:00N 30°04' W 093°21'0 0.0
2018-Feb-14 23:30N 30°04' W 093°21'0 0.0
2018-Feb-14 23:00N 30°04' W 093°21'0 0.0
2018-Feb-14 22:30N 30°04' W 093°21'0 0.0
2018-Feb-14 22:00N 30°04' W 093°21'0 0.0
2018-Feb-14 21:30N 30°04' W 093°21'0 0.0
2018-Feb-14 21:00N 30°04' W 093°21'0 0.0
2018-Feb-14 20:30N 30°04' W 093°21'0 0.0
2018-Feb-14 20:00N 30°04' W 093°21'0 0.0
2018-Feb-14 19:30N 30°04' W 093°21'0 0.0
2018-Feb-14 19:01N 30°04' W 093°21'0 0.0
2018-Feb-14 18:30N 30°04' W 093°21'1 1.1
2018-Feb-14 18:00N 30°04' W 093°21'0 0.2
2018-Feb-14 17:30N 30°04' W 093°21'0 0.9
2018-Feb-14 17:00N 30°04' W 093°21'0 0.0
2018-Feb-14 16:30N 30°04' W 093°21'0 0.0
2018-Feb-14 16:00N 30°04' W 093°21'0 0.0
2018-Feb-14 15:31N 30°04' W 093°21'0 0.0
2018-Feb-14 15:01N 30°04' W 093°21'0 0.0
2018-Feb-14 14:30N 30°04' W 093°21'0 0.0
2018-Feb-14 14:00N 30°04' W 093°21'0 0.0
2018-Feb-14 13:31N 30°04' W 093°21'0 0.0
2018-Feb-14 13:01N 30°04' W 093°21'0 0.0
2018-Feb-14 12:30N 30°04' W 093°21'0 0.0
2018-Feb-14 12:00N 30°04' W 093°21'0 0.0
2018-Feb-14 11:30N 30°04' W 093°21'0 0.0
2018-Feb-14 11:00N 30°04' W 093°21'0 0.0
2018-Feb-14 10:31N 30°04' W 093°21'0 0.0
2018-Feb-14 10:00N 30°04' W 093°21'0 0.0
2018-Feb-14 09:30N 30°04' W 093°21'0 0.0
2018-Feb-14 09:00N 30°04' W 093°21'0 0.0
2018-Feb-14 08:30N 30°04' W 093°21'0 0.0
2018-Feb-14 08:00N 30°04' W 093°21'0 0.0
2018-Feb-14 07:30N 30°04' W 093°21'0 0.0
2018-Feb-14 07:00N 30°04' W 093°21'0 0.0
2018-Feb-14 06:30N 30°04' W 093°21'0 0.0
2018-Feb-14 06:00N 30°04' W 093°21'0 0.0
2018-Feb-14 05:30N 30°04' W 093°21'0 0.0
2018-Feb-14 05:00N 30°04' W 093°21'0 0.0
2018-Feb-14 04:30N 30°04' W 093°21'0 0.0
2018-Feb-14 04:00N 30°04' W 093°21'0 0.0
2018-Feb-14 03:30N 30°04' W 093°21'0 0.0
2018-Feb-14 03:00N 30°04' W 093°21'0 0.0
2018-Feb-14 02:30N 30°04' W 093°21'0 0.0
2018-Feb-14 02:00N 30°04' W 093°21'0 0.0
2018-Feb-14 01:31N 30°04' W 093°21'0 0.0
2018-Feb-14 01:01N 30°04' W 093°21'0 0.0
2018-Feb-14 00:31N 30°04' W 093°21'0 0.0
2018-Feb-14 00:00N 30°04' W 093°21'0 0.0
2018-Feb-13 23:30N 30°04' W 093°21'0 0.0
2018-Feb-13 23:01N 30°04' W 093°21'0 0.0
2018-Feb-13 22:31N 30°04' W 093°21'0 0.0
2018-Feb-13 22:00N 30°04' W 093°21'0 0.0
2018-Feb-13 21:30N 30°04' W 093°21'0 0.0
2018-Feb-13 21:01N 30°04' W 093°21'0 0.0
2018-Feb-13 20:30N 30°04' W 093°21'0 0.0
2018-Feb-13 20:00N 30°04' W 093°21'0 0.0
2018-Feb-13 19:31N 30°04' W 093°21'0 0.0
2018-Feb-13 19:00N 30°04' W 093°21'0 0.0
2018-Feb-13 18:30N 30°04' W 093°21'0 0.0
2018-Feb-13 18:01N 30°04' W 093°21'0 0.0
2018-Feb-13 17:30N 30°04' W 093°21'0 0.0
2018-Feb-13 17:00N 30°04' W 093°21'0 0.0
2018-Feb-13 16:30N 30°04' W 093°21'0 0.0
2018-Feb-13 15:59N 30°04' W 093°21'0 0.0
2018-Feb-13 15:30N 30°04' W 093°21'0 0.0
2018-Feb-13 15:00N 30°04' W 093°21'0 0.0
2018-Feb-13 14:30N 30°04' W 093°21'0 0.0
2018-Feb-13 14:00N 30°04' W 093°21'0 0.0
2018-Feb-13 13:31N 30°04' W 093°21'0 0.0
2018-Feb-13 13:00N 30°04' W 093°21'0 0.0
2018-Feb-13 12:31N 30°04' W 093°21'0 0.0
2018-Feb-13 12:00N 30°04' W 093°21'0 0.0
2018-Feb-13 11:27N 30°04' W 093°21'0 0.0
2018-Feb-13 11:00N 30°04' W 093°21'0 0.0
2018-Feb-13 10:30N 30°04' W 093°21'0 0.0
2018-Feb-13 10:00N 30°04' W 093°21'0 0.0
2018-Feb-13 09:30N 30°04' W 093°21'0 0.0
2018-Feb-13 08:59N 30°04' W 093°21'0 0.0
2018-Feb-13 08:30N 30°04' W 093°21'0 0.0
2018-Feb-13 07:59N 30°04' W 093°21'0 0.0
2018-Feb-13 07:28N 30°04' W 093°21'0 0.0
2018-Feb-13 07:01N 30°04' W 093°21'0 0.0
2018-Feb-13 06:30N 30°04' W 093°21'0 0.0
2018-Feb-13 06:00N 30°04' W 093°21'0 0.0
2018-Feb-13 05:29N 30°04' W 093°21'0 0.0
2018-Feb-13 05:01N 30°04' W 093°21'0 0.0
2018-Feb-13 04:30N 30°04' W 093°21'0 0.0
2018-Feb-13 04:01N 30°04' W 093°21'0 0.0
2018-Feb-13 03:31N 30°04' W 093°21'3 6.2
2018-Feb-13 03:00N 30°06' W 093°18'0 0.0
2018-Feb-13 02:31N 30°06' W 093°18'0 0.0
2018-Feb-13 02:00N 30°06' W 093°18'0 0.0
2018-Feb-13 01:31N 30°06' W 093°18'0 0.0
2018-Feb-13 01:00N 30°06' W 093°18'1 2.1
2018-Feb-13 00:30N 30°06' W 093°19'2 4.2
2018-Feb-13 00:00N 30°04' W 093°21'0 0.0
2018-Feb-12 23:30N 30°04' W 093°21'1 1.1
2018-Feb-12 23:00N 30°04' W 093°21'0 0.0
2018-Feb-12 22:30N 30°04' W 093°21'0 0.0
2018-Feb-12 22:00N 30°04' W 093°21'0 0.0
2018-Feb-12 21:29N 30°04' W 093°21'0 0.0
2018-Feb-12 20:55N 30°04' W 093°21'0 0.0
2018-Feb-12 20:27N 30°04' W 093°21'0 0.0
2018-Feb-12 20:01N 30°04' W 093°21'0 0.0
2018-Feb-12 19:25N 30°04' W 093°21'0 0.0
2018-Feb-12 19:00N 30°04' W 093°21'0 0.0
2018-Feb-12 18:31N 30°04' W 093°21'0 0.0
2018-Feb-12 18:00N 30°04' W 093°21'0 0.0
2018-Feb-12 17:29N 30°04' W 093°21'0 0.0
2018-Feb-12 17:01N 30°04' W 093°21'0 0.0
2018-Feb-12 16:29N 30°04' W 093°21'1 1.2
2018-Feb-12 16:00N 30°04' W 093°21'0 0.0
2018-Feb-12 15:31N 30°04' W 093°21'0 0.0
2018-Feb-12 14:59N 30°04' W 093°21'0 0.0
2018-Feb-12 14:29N 30°04' W 093°21'0 0.0
2018-Feb-12 14:00N 30°04' W 093°21'0 0.0
2018-Feb-12 13:31N 30°04' W 093°21'0 0.0
2018-Feb-12 13:01N 30°04' W 093°21'0 0.0
2018-Feb-12 12:30N 30°04' W 093°21'0 0.0
2018-Feb-12 11:59N 30°04' W 093°21'0 0.0
2018-Feb-12 11:27N 30°04' W 093°21'0 0.0
2018-Feb-12 10:59N 30°04' W 093°21'0 0.0
2018-Feb-12 10:31N 30°04' W 093°21'0 0.0
2018-Feb-12 09:55N 30°04' W 093°21'0 0.0
2018-Feb-12 09:25N 30°04' W 093°21'0 0.0
2018-Feb-12 09:00N 30°04' W 093°21'0 0.0
2018-Feb-12 08:29N 30°04' W 093°21'0 0.0
2018-Feb-12 08:00N 30°04' W 093°21'0 0.0
2018-Feb-12 07:30N 30°04' W 093°21'0 0.0
2018-Feb-12 06:59N 30°04' W 093°21'0 0.0
2018-Feb-12 06:30N 30°04' W 093°21'0 0.0
2018-Feb-12 05:55N 30°04' W 093°21'0 0.0
2018-Feb-12 05:31N 30°04' W 093°21'0 0.0
2018-Feb-12 05:00N 30°04' W 093°21'0 0.0
2018-Feb-12 04:27N 30°04' W 093°21'0 0.0
2018-Feb-12 03:57N 30°04' W 093°21'0 0.0
2018-Feb-12 03:30N 30°04' W 093°21'0 0.0
2018-Feb-12 02:59N 30°04' W 093°21'0 0.0
2018-Feb-12 02:29N 30°04' W 093°21'0 0.0
2018-Feb-12 02:00N 30°04' W 093°21'0 0.0
2018-Feb-12 01:30N 30°04' W 093°21'0 0.0
2018-Feb-12 01:00N 30°04' W 093°21'0 0.0
2018-Feb-12 00:30N 30°04' W 093°21'0 0.0
2018-Feb-12 00:01N 30°04' W 093°21'0 0.0
2018-Feb-11 23:30N 30°04' W 093°21'0 0.0
2018-Feb-11 23:00N 30°04' W 093°21'0 0.0
2018-Feb-11 22:30N 30°04' W 093°21'0 0.0
2018-Feb-11 22:00N 30°04' W 093°21'0 0.0
2018-Feb-11 21:29N 30°04' W 093°21'0 0.0
2018-Feb-11 20:55N 30°04' W 093°21'0 0.0
2018-Feb-11 20:31N 30°04' W 093°21'0 0.0
2018-Feb-11 20:00N 30°04' W 093°21'0 0.0
2018-Feb-11 19:27N 30°04' W 093°21'0 0.0
2018-Feb-11 19:00N 30°04' W 093°21'0 0.0
2018-Feb-11 18:31N 30°04' W 093°21'0 0.0
2018-Feb-11 18:01N 30°04' W 093°21'0 0.0
2018-Feb-11 17:30N 30°04' W 093°21'0 0.0
2018-Feb-11 17:01N 30°04' W 093°21'0 0.0
2018-Feb-11 16:31N 30°04' W 093°21'0 0.0
2018-Feb-11 16:00N 30°04' W 093°21'0 0.0
2018-Feb-11 15:31N 30°04' W 093°21'0 0.0
2018-Feb-11 15:00N 30°04' W 093°21'0 0.0
2018-Feb-11 14:30N 30°04' W 093°21'0 0.0
2018-Feb-11 14:00N 30°04' W 093°21'0 0.0
2018-Feb-11 13:30N 30°04' W 093°21'0 0.0
2018-Feb-11 13:00N 30°04' W 093°21'0 0.0
2018-Feb-11 12:30N 30°04' W 093°21'0 0.0
2018-Feb-11 12:01N 30°04' W 093°21'0 0.0
2018-Feb-11 11:30N 30°04' W 093°21'0 0.0
2018-Feb-11 11:00N 30°04' W 093°21'0 0.0
2018-Feb-11 10:30N 30°04' W 093°21'0 0.0
2018-Feb-11 10:00N 30°04' W 093°21'0 0.0
2018-Feb-11 09:30N 30°04' W 093°21'0 0.0
2018-Feb-11 09:00N 30°04' W 093°21'0 0.0
2018-Feb-11 08:30N 30°04' W 093°21'0 0.0
2018-Feb-11 08:00N 30°04' W 093°21'0 0.0
2018-Feb-11 07:30N 30°04' W 093°21'0 0.0
2018-Feb-11 07:00N 30°04' W 093°21'0 0.0
2018-Feb-11 06:30N 30°04' W 093°21'0 0.0
2018-Feb-11 06:00N 30°04' W 093°21'0 0.0
2018-Feb-11 05:30N 30°04' W 093°21'0 0.0
2018-Feb-11 05:00N 30°04' W 093°21'0 0.0
2018-Feb-11 04:30N 30°04' W 093°21'0 0.0
2018-Feb-11 04:00N 30°04' W 093°21'0 0.0
2018-Feb-11 03:30N 30°04' W 093°21'0 0.0
2018-Feb-11 03:00N 30°04' W 093°21'0 0.0
2018-Feb-11 02:30N 30°04' W 093°21'0 0.0
2018-Feb-11 02:00N 30°04' W 093°21'0 0.0
2018-Feb-11 01:30N 30°04' W 093°21'2 4.0
2018-Feb-11 01:00N 30°04' W 093°23'2 3.0
2018-Feb-11 00:30N 30°04' W 093°25'3 5.9
2018-Feb-11 00:00N 30°04' W 093°28'3 5.4
2018-Feb-10 23:31N 30°04' W 093°31'3 5.1
2018-Feb-10 23:00N 30°04' W 093°34'3 5.6
2018-Feb-10 22:29N 30°03' W 093°38'3 5.5
2018-Feb-10 22:00N 30°04' W 093°41'3 6.1
2018-Feb-10 21:31N 30°03' W 093°44'3 6.3
2018-Feb-10 21:01N 30°00' W 093°46'3 6.5
2018-Feb-10 20:30N 29°59' W 093°50'3 6.0
2018-Feb-10 20:01N 29°56' W 093°52'4 7.2
2018-Feb-10 19:30N 29°54' W 093°55'4 7.4
2018-Feb-10 19:00N 29°51' W 093°57'3 4.8
2018-Feb-10 18:29N 29°49' W 093°59'1 1.5
2018-Feb-10 18:00N 29°48' W 093°60'3 5.5
2018-Feb-10 17:30N 29°47' W 094°02'3 5.9
2018-Feb-10 17:01N 29°45' W 094°05'3 5.7
2018-Feb-10 16:31N 29°43' W 094°07'1 1.0
2018-Feb-10 16:00N 29°43' W 094°08'1 2.0
2018-Feb-10 15:30N 29°42' W 094°09'2 4.2
2018-Feb-10 15:01N 29°41' W 094°11'2 3.6
2018-Feb-10 14:31N 29°40' W 094°13'0 0.1
2018-Feb-10 14:01N 29°40' W 094°13'3 5.6
2018-Feb-10 13:30N 29°39' W 094°16'1 1.8
2018-Feb-10 12:55N 29°39' W 094°17'0 0.0
2018-Feb-10 12:29N 29°39' W 094°17'0 0.0
2018-Feb-10 12:01N 29°39' W 094°17'0 0.0
2018-Feb-10 11:27N 29°39' W 094°17'0 0.0
2018-Feb-10 10:59N 29°39' W 094°17'0 0.0
2018-Feb-10 10:22N 29°39' W 094°17'0 0.0
2018-Feb-10 10:00N 29°39' W 094°17'0 0.0
2018-Feb-10 09:30N 29°39' W 094°17'0 0.0
2018-Feb-10 08:59N 29°39' W 094°17'0 0.0
2018-Feb-10 08:20N 29°39' W 094°17'0 0.0
2018-Feb-10 07:48N 29°39' W 094°17'0 0.0
2018-Feb-10 07:30N 29°39' W 094°17'0 0.0
2018-Feb-10 06:26N 29°39' W 094°17'0 0.1
2018-Feb-10 05:58N 29°39' W 094°17'6 1.3
2018-Feb-10 01:35N 29°36' W 094°23'0 0.0
2018-Feb-10 01:28N 29°36' W 094°23'0 0.0
2018-Feb-10 01:00N 29°36' W 094°23'1 1.5
2018-Feb-10 00:28N 29°36' W 094°24'4 3.2
2018-Feb-09 23:22N 29°34' W 094°27'24 3.8
2018-Feb-09 17:00N 29°33' W 094°55'8 8.3
2018-Feb-09 16:00N 29°41' W 094°59'  
Track history (hours):
 
Tides and Currents Weather Stations Pressure Air Temp Water Temp Dewpoint Dewpoint Depression Visibility Wind Speed Wind Dir Waves Ship Positions

Saint Charles

Owner: Higman Barge Lines, Inc, Orange, TX. More information available from US FCC via Universal Licensing System and Coast Guard Vessel Documentation Center.

Last reported at 2018-Feb-19 11:08 UTC. Time now 2018-Feb-20 13:24 UTC.
Position N 29°34' W 090°23'.

Length 26 m; draft 3.3 m.

Type: Towing. MMSI: 367430030.

Date/timePositionNaut miles runAvg speedWind from/ knotsBaromVisibWave heightAir tempDewpointWater temp
2018-Feb-19 11:08N 29°34' W 090°23'1 3.6
2018-Feb-19 10:55N 29°33' W 090°24'1 2.0
2018-Feb-19 10:30N 29°33' W 090°25'0 0.1
2018-Feb-19 09:59N 29°33' W 090°25'3 4.0
2018-Feb-19 09:17N 29°33' W 090°28'1 4.5
2018-Feb-19 09:01N 29°34' W 090°30'2 4.4
2018-Feb-19 08:30N 29°34' W 090°32'2 4.1
2018-Feb-19 08:00N 29°34' W 090°34'2 4.2
2018-Feb-19 07:30N 29°35' W 090°37'2 3.5
2018-Feb-19 07:00N 29°35' W 090°38'2 4.3
2018-Feb-19 06:30N 29°36' W 090°41'2 3.2
2018-Feb-19 06:01N 29°36' W 090°43'2 4.0
2018-Feb-19 05:30N 29°34' W 090°43'2 3.8
2018-Feb-19 05:00N 29°34' W 090°45'1 1.6
2018-Feb-19 04:31N 29°33' W 090°45'0 0.0
2018-Feb-19 04:00N 29°33' W 090°45'0 0.0
2018-Feb-19 03:31N 29°33' W 090°45'0 0.0
2018-Feb-19 03:00N 29°33' W 090°45'0 0.1
2018-Feb-19 02:30N 29°33' W 090°45'0 0.9
2018-Feb-19 02:00N 29°32' W 090°46'2 3.6
2018-Feb-19 01:30N 29°32' W 090°48'2 4.7
2018-Feb-19 01:00N 29°32' W 090°50'3 4.6
2018-Feb-19 00:26N 29°33' W 090°53'2 4.9
2018-Feb-18 23:59N 29°34' W 090°56'3 4.1
2018-Feb-18 23:21N 29°35' W 090°58'55 2.1
2018-Feb-17 21:01N 29°50' W 091°59'0 4.5
2018-Feb-17 21:00N 29°50' W 091°59'2 4.2
2018-Feb-17 20:30N 29°49' W 092°01'2 4.5
2018-Feb-17 20:00N 29°49' W 092°04'2 4.4
2018-Feb-17 19:30N 29°48' W 092°06'2 4.2
2018-Feb-17 19:00N 29°47' W 092°08'2 4.2
2018-Feb-17 18:31N 29°47' W 092°11'2 4.9
2018-Feb-17 18:00N 29°48' W 092°13'2 4.9
2018-Feb-17 17:30N 29°49' W 092°16'2 4.4
2018-Feb-17 17:00N 29°50' W 092°18'3 4.5
2018-Feb-17 16:18N 29°51' W 092°21'21 1.5
2018-Feb-17 01:56N 29°58' W 092°45'2 4.6
2018-Feb-17 01:27N 29°58' W 092°47'2 4.7
2018-Feb-17 01:00N 29°58' W 092°50'3 4.5
2018-Feb-17 00:23N 29°57' W 092°53'4 4.2
2018-Feb-16 23:21N 29°56' W 092°58'2 4.4
2018-Feb-16 22:53N 29°56' W 092°60'2 4.4
2018-Feb-16 22:24N 29°56' W 093°02'2 4.4
2018-Feb-16 22:00N 29°56' W 093°04'2 4.3
2018-Feb-16 21:30N 29°56' W 093°07'2 4.1
2018-Feb-16 21:00N 29°56' W 093°09'2 4.0
2018-Feb-16 20:30N 29°57' W 093°11'2 4.0
2018-Feb-16 20:00N 29°59' W 093°12'2 3.8
2018-Feb-16 19:30N 30°00' W 093°14'1 2.7
2018-Feb-16 19:00N 30°02' W 093°14'1 1.6
2018-Feb-16 18:30N 30°02' W 093°15'2 3.3
2018-Feb-16 18:00N 30°04' W 093°16'2 3.4
2018-Feb-16 17:30N 30°05' W 093°17'1 3.0
2018-Feb-16 17:00N 30°06' W 093°18'1 2.4
2018-Feb-16 16:30N 30°06' W 093°20'3 5.2
2018-Feb-16 16:01N 30°09' W 093°20'2 4.6
2018-Feb-16 15:30N 30°11' W 093°19'0 0.5
2018-Feb-16 15:00N 30°11' W 093°19'0 0.2
2018-Feb-16 14:29N 30°11' W 093°19'0 0.0
2018-Feb-16 14:00N 30°11' W 093°19'0 0.0
2018-Feb-16 13:31N 30°11' W 093°19'0 0.0
2018-Feb-16 13:00N 30°11' W 093°19'0 0.0
2018-Feb-16 12:30N 30°11' W 093°19'0 0.0
2018-Feb-16 12:00N 30°11' W 093°19'0 0.0
2018-Feb-16 11:30N 30°11' W 093°19'0 0.0
2018-Feb-16 11:00N 30°11' W 093°19'0 0.0
2018-Feb-16 10:30N 30°11' W 093°19'0 0.0
2018-Feb-16 10:00N 30°11' W 093°19'0 0.0
2018-Feb-16 09:30N 30°11' W 093°19'0 0.0
2018-Feb-16 09:00N 30°11' W 093°19'0 0.0
2018-Feb-16 08:30N 30°11' W 093°19'0 0.0
2018-Feb-16 08:00N 30°11' W 093°19'0 0.0
2018-Feb-16 07:30N 30°11' W 093°19'0 0.0
2018-Feb-16 07:00N 30°11' W 093°19'0 0.0
2018-Feb-16 06:31N 30°11' W 093°19'0 0.0
2018-Feb-16 06:01N 30°11' W 093°19'0 0.0
2018-Feb-16 05:30N 30°11' W 093°19'0 0.0
2018-Feb-16 05:01N 30°11' W 093°19'0 0.0
2018-Feb-16 04:28N 30°11' W 093°19'0 0.0
2018-Feb-16 04:00N 30°11' W 093°19'0 0.0
2018-Feb-16 03:30N 30°11' W 093°19'0 0.0
2018-Feb-16 02:54N 30°11' W 093°19'0 0.0
2018-Feb-16 02:30N 30°11' W 093°19'0 0.0
2018-Feb-16 02:01N 30°11' W 093°19'0 0.0
2018-Feb-16 01:30N 30°11' W 093°19'0 0.0
2018-Feb-16 01:00N 30°11' W 093°19'0 0.0
2018-Feb-16 00:29N 30°11' W 093°19'0 0.0
2018-Feb-16 00:00N 30°11' W 093°19'0 0.0
2018-Feb-15 23:30N 30°11' W 093°19'0 0.0
2018-Feb-15 23:00N 30°11' W 093°19'0 0.0
2018-Feb-15 22:30N 30°11' W 093°19'0 0.0
2018-Feb-15 21:59N 30°11' W 093°19'0 0.1
2018-Feb-15 21:30N 30°11' W 093°19'1 1.3
2018-Feb-15 21:00N 30°10' W 093°19'3 6.2
2018-Feb-15 20:30N 30°08' W 093°20'3 5.1
2018-Feb-15 20:01N 30°05' W 093°20'1 2.2
2018-Feb-15 19:31N 30°04' W 093°21'0 0.0
2018-Feb-15 19:00N 30°04' W 093°21'0 0.0
2018-Feb-15 18:30N 30°04' W 093°21'0 0.0
2018-Feb-15 18:00N 30°04' W 093°21'0 0.0
2018-Feb-15 17:30N 30°04' W 093°21'0 0.0
2018-Feb-15 17:00N 30°04' W 093°21'0 0.0
2018-Feb-15 16:31N 30°04' W 093°21'0 0.0
2018-Feb-15 16:00N 30°04' W 093°21'0 0.0
2018-Feb-15 15:30N 30°04' W 093°21'0 0.0
2018-Feb-15 15:00N 30°04' W 093°21'0 0.0
2018-Feb-15 14:30N 30°04' W 093°21'0 0.0
2018-Feb-15 14:01N 30°04' W 093°21'0 0.0
2018-Feb-15 13:30N 30°04' W 093°21'0 0.0
2018-Feb-15 13:00N 30°04' W 093°21'0 0.0
2018-Feb-15 12:30N 30°04' W 093°21'0 0.0
2018-Feb-15 12:00N 30°04' W 093°21'0 0.0
2018-Feb-15 11:30N 30°04' W 093°21'0 0.0
2018-Feb-15 11:00N 30°04' W 093°21'0 0.0
2018-Feb-15 10:30N 30°04' W 093°21'0 0.0
2018-Feb-15 10:01N 30°04' W 093°21'0 0.0
2018-Feb-15 09:30N 30°04' W 093°21'0 0.0
2018-Feb-15 09:00N 30°04' W 093°21'0 0.0
2018-Feb-15 08:30N 30°04' W 093°21'0 0.0
2018-Feb-15 08:00N 30°04' W 093°21'0 0.0
2018-Feb-15 07:30N 30°04' W 093°21'0 0.0
2018-Feb-15 07:00N 30°04' W 093°21'0 0.0
2018-Feb-15 06:30N 30°04' W 093°21'0 0.0
2018-Feb-15 06:00N 30°04' W 093°21'0 0.0
2018-Feb-15 05:30N 30°04' W 093°21'0 0.0
2018-Feb-15 05:00N 30°04' W 093°21'0 0.0
2018-Feb-15 04:30N 30°04' W 093°21'0 0.0
2018-Feb-15 04:00N 30°04' W 093°21'0 0.0
2018-Feb-15 03:30N 30°04' W 093°21'0 0.0
2018-Feb-15 03:00N 30°04' W 093°21'0 0.0
2018-Feb-15 02:30N 30°04' W 093°21'0 0.0
2018-Feb-15 02:00N 30°04' W 093°21'0 0.0
2018-Feb-15 01:30N 30°04' W 093°21'0 0.0
2018-Feb-15 01:01N 30°04' W 093°21'0 0.0
2018-Feb-15 00:31N 30°04' W 093°21'0 0.0
2018-Feb-15 00:00N 30°04' W 093°21'0 0.0
2018-Feb-14 23:30N 30°04' W 093°21'0 0.0
2018-Feb-14 23:00N 30°04' W 093°21'0 0.0
2018-Feb-14 22:30N 30°04' W 093°21'0 0.0
2018-Feb-14 22:00N 30°04' W 093°21'0 0.0
2018-Feb-14 21:30N 30°04' W 093°21'0 0.0
2018-Feb-14 21:00N 30°04' W 093°21'0 0.0
2018-Feb-14 20:30N 30°04' W 093°21'0 0.0
2018-Feb-14 20:00N 30°04' W 093°21'0 0.0
2018-Feb-14 19:30N 30°04' W 093°21'0 0.0
2018-Feb-14 19:01N 30°04' W 093°21'0 0.0
2018-Feb-14 18:30N 30°04' W 093°21'1 1.1
2018-Feb-14 18:00N 30°04' W 093°21'0 0.2
2018-Feb-14 17:30N 30°04' W 093°21'0 0.9
2018-Feb-14 17:00N 30°04' W 093°21'0 0.0
2018-Feb-14 16:30N 30°04' W 093°21'0 0.0
2018-Feb-14 16:00N 30°04' W 093°21'0 0.0
2018-Feb-14 15:31N 30°04' W 093°21'0 0.0
2018-Feb-14 15:01N 30°04' W 093°21'0 0.0
2018-Feb-14 14:30N 30°04' W 093°21'0 0.0
2018-Feb-14 14:00N 30°04' W 093°21'0 0.0
2018-Feb-14 13:31N 30°04' W 093°21'0 0.0
2018-Feb-14 13:01N 30°04' W 093°21'0 0.0
2018-Feb-14 12:30N 30°04' W 093°21'0 0.0
2018-Feb-14 12:00N 30°04' W 093°21'0 0.0
2018-Feb-14 11:30N 30°04' W 093°21'0 0.0
2018-Feb-14 11:00N 30°04' W 093°21'0 0.0
2018-Feb-14 10:31N 30°04' W 093°21'0 0.0
2018-Feb-14 10:00N 30°04' W 093°21'0 0.0
2018-Feb-14 09:30N 30°04' W 093°21'0 0.0
2018-Feb-14 09:00N 30°04' W 093°21'0 0.0
2018-Feb-14 08:30N 30°04' W 093°21'0 0.0
2018-Feb-14 08:00N 30°04' W 093°21'0 0.0
2018-Feb-14 07:30N 30°04' W 093°21'0 0.0
2018-Feb-14 07:00N 30°04' W 093°21'0 0.0
2018-Feb-14 06:30N 30°04' W 093°21'0 0.0
2018-Feb-14 06:00N 30°04' W 093°21'0 0.0
2018-Feb-14 05:30N 30°04' W 093°21'0 0.0
2018-Feb-14 05:00N 30°04' W 093°21'0 0.0
2018-Feb-14 04:30N 30°04' W 093°21'0 0.0
2018-Feb-14 04:00N 30°04' W 093°21'0 0.0
2018-Feb-14 03:30N 30°04' W 093°21'0 0.0
2018-Feb-14 03:00N 30°04' W 093°21'0 0.0
2018-Feb-14 02:30N 30°04' W 093°21'0 0.0
2018-Feb-14 02:00N 30°04' W 093°21'0 0.0
2018-Feb-14 01:31N 30°04' W 093°21'0 0.0
2018-Feb-14 01:01N 30°04' W 093°21'0 0.0
2018-Feb-14 00:31N 30°04' W 093°21'0 0.0
2018-Feb-14 00:00N 30°04' W 093°21'0 0.0
2018-Feb-13 23:30N 30°04' W 093°21'0 0.0
2018-Feb-13 23:01N 30°04' W 093°21'0 0.0
2018-Feb-13 22:31N 30°04' W 093°21'0 0.0
2018-Feb-13 22:00N 30°04' W 093°21'0 0.0
2018-Feb-13 21:30N 30°04' W 093°21'0 0.0
2018-Feb-13 21:01N 30°04' W 093°21'0 0.0
2018-Feb-13 20:30N 30°04' W 093°21'0 0.0
2018-Feb-13 20:00N 30°04' W 093°21'0 0.0
2018-Feb-13 19:31N 30°04' W 093°21'0 0.0
2018-Feb-13 19:00N 30°04' W 093°21'0 0.0
2018-Feb-13 18:30N 30°04' W 093°21'0 0.0
2018-Feb-13 18:01N 30°04' W 093°21'0 0.0
2018-Feb-13 17:30N 30°04' W 093°21'0 0.0
2018-Feb-13 17:00N 30°04' W 093°21'0 0.0
2018-Feb-13 16:30N 30°04' W 093°21'0 0.0
2018-Feb-13 15:59N 30°04' W 093°21'0 0.0
2018-Feb-13 15:30N 30°04' W 093°21'0 0.0
2018-Feb-13 15:00N 30°04' W 093°21'0 0.0
2018-Feb-13 14:30N 30°04' W 093°21'0 0.0
2018-Feb-13 14:00N 30°04' W 093°21'0 0.0
2018-Feb-13 13:31N 30°04' W 093°21'0 0.0
2018-Feb-13 13:00N 30°04' W 093°21'0 0.0
2018-Feb-13 12:31N 30°04' W 093°21'0 0.0
2018-Feb-13 12:00N 30°04' W 093°21'0 0.0
2018-Feb-13 11:27N 30°04' W 093°21'0 0.0
2018-Feb-13 11:00N 30°04' W 093°21'0 0.0
2018-Feb-13 10:30N 30°04' W 093°21'0 0.0
2018-Feb-13 10:00N 30°04' W 093°21'0 0.0
2018-Feb-13 09:30N 30°04' W 093°21'0 0.0
2018-Feb-13 08:59N 30°04' W 093°21'0 0.0
2018-Feb-13 08:30N 30°04' W 093°21'0 0.0
2018-Feb-13 07:59N 30°04' W 093°21'0 0.0
2018-Feb-13 07:28N 30°04' W 093°21'0 0.0
2018-Feb-13 07:01N 30°04' W 093°21'0 0.0
2018-Feb-13 06:30N 30°04' W 093°21'0 0.0
2018-Feb-13 06:00N 30°04' W 093°21'0 0.0
2018-Feb-13 05:29N 30°04' W 093°21'0 0.0
2018-Feb-13 05:01N 30°04' W 093°21'0 0.0
2018-Feb-13 04:30N 30°04' W 093°21'0 0.0
2018-Feb-13 04:01N 30°04' W 093°21'0 0.0
2018-Feb-13 03:31N 30°04' W 093°21'3 6.2
2018-Feb-13 03:00N 30°06' W 093°18'0 0.0
2018-Feb-13 02:31N 30°06' W 093°18'0 0.0
2018-Feb-13 02:00N 30°06' W 093°18'0 0.0
2018-Feb-13 01:31N 30°06' W 093°18'0 0.0
2018-Feb-13 01:00N 30°06' W 093°18'1 2.1
2018-Feb-13 00:30N 30°06' W 093°19'2 4.2
2018-Feb-13 00:00N 30°04' W 093°21'0 0.0
2018-Feb-12 23:30N 30°04' W 093°21'1 1.1
2018-Feb-12 23:00N 30°04' W 093°21'0 0.0
2018-Feb-12 22:30N 30°04' W 093°21'0 0.0
2018-Feb-12 22:00N 30°04' W 093°21'0 0.0
2018-Feb-12 21:29N 30°04' W 093°21'0 0.0
2018-Feb-12 20:55N 30°04' W 093°21'0 0.0
2018-Feb-12 20:27N 30°04' W 093°21'0 0.0
2018-Feb-12 20:01N 30°04' W 093°21'0 0.0
2018-Feb-12 19:25N 30°04' W 093°21'0 0.0
2018-Feb-12 19:00N 30°04' W 093°21'0 0.0
2018-Feb-12 18:31N 30°04' W 093°21'0 0.0
2018-Feb-12 18:00N 30°04' W 093°21'0 0.0
2018-Feb-12 17:29N 30°04' W 093°21'0 0.0
2018-Feb-12 17:01N 30°04' W 093°21'0 0.0
2018-Feb-12 16:29N 30°04' W 093°21'1 1.2
2018-Feb-12 16:00N 30°04' W 093°21'0 0.0
2018-Feb-12 15:31N 30°04' W 093°21'0 0.0
2018-Feb-12 14:59N 30°04' W 093°21'0 0.0
2018-Feb-12 14:29N 30°04' W 093°21'0 0.0
2018-Feb-12 14:00N 30°04' W 093°21'0 0.0
2018-Feb-12 13:31N 30°04' W 093°21'0 0.0
2018-Feb-12 13:01N 30°04' W 093°21'0 0.0
2018-Feb-12 12:30N 30°04' W 093°21'0 0.0
2018-Feb-12 11:59N 30°04' W 093°21'0 0.0
2018-Feb-12 11:27N 30°04' W 093°21'0 0.0
2018-Feb-12 10:59N 30°04' W 093°21'0 0.0
2018-Feb-12 10:31N 30°04' W 093°21'0 0.0
2018-Feb-12 09:55N 30°04' W 093°21'0 0.0
2018-Feb-12 09:25N 30°04' W 093°21'0 0.0
2018-Feb-12 09:00N 30°04' W 093°21'0 0.0
2018-Feb-12 08:29N 30°04' W 093°21'0 0.0
2018-Feb-12 08:00N 30°04' W 093°21'0 0.0
2018-Feb-12 07:30N 30°04' W 093°21'0 0.0
2018-Feb-12 06:59N 30°04' W 093°21'0 0.0
2018-Feb-12 06:30N 30°04' W 093°21'0 0.0
2018-Feb-12 05:55N 30°04' W 093°21'0 0.0
2018-Feb-12 05:31N 30°04' W 093°21'0 0.0
2018-Feb-12 05:00N 30°04' W 093°21'0 0.0
2018-Feb-12 04:27N 30°04' W 093°21'0 0.0
2018-Feb-12 03:57N 30°04' W 093°21'0 0.0
2018-Feb-12 03:30N 30°04' W 093°21'0 0.0
2018-Feb-12 02:59N 30°04' W 093°21'0 0.0
2018-Feb-12 02:29N 30°04' W 093°21'0 0.0
2018-Feb-12 02:00N 30°04' W 093°21'0 0.0
2018-Feb-12 01:30N 30°04' W 093°21'0 0.0
2018-Feb-12 01:00N 30°04' W 093°21'0 0.0
2018-Feb-12 00:30N 30°04' W 093°21'0 0.0
2018-Feb-12 00:01N 30°04' W 093°21'0 0.0
2018-Feb-11 23:30N 30°04' W 093°21'0 0.0
2018-Feb-11 23:00N 30°04' W 093°21'0 0.0
2018-Feb-11 22:30N 30°04' W 093°21'0 0.0
2018-Feb-11 22:00N 30°04' W 093°21'0 0.0
2018-Feb-11 21:29N 30°04' W 093°21'0 0.0
2018-Feb-11 20:55N 30°04' W 093°21'0 0.0
2018-Feb-11 20:31N 30°04' W 093°21'0 0.0
2018-Feb-11 20:00N 30°04' W 093°21'0 0.0
2018-Feb-11 19:27N 30°04' W 093°21'0 0.0
2018-Feb-11 19:00N 30°04' W 093°21'0 0.0
2018-Feb-11 18:31N 30°04' W 093°21'0 0.0
2018-Feb-11 18:01N 30°04' W 093°21'0 0.0
2018-Feb-11 17:30N 30°04' W 093°21'0 0.0
2018-Feb-11 17:01N 30°04' W 093°21'0 0.0
2018-Feb-11 16:31N 30°04' W 093°21'0 0.0
2018-Feb-11 16:00N 30°04' W 093°21'0 0.0
2018-Feb-11 15:31N 30°04' W 093°21'0 0.0
2018-Feb-11 15:00N 30°04' W 093°21'0 0.0
2018-Feb-11 14:30N 30°04' W 093°21'0 0.0
2018-Feb-11 14:00N 30°04' W 093°21'0 0.0
2018-Feb-11 13:30N 30°04' W 093°21'0 0.0
2018-Feb-11 13:00N 30°04' W 093°21'0 0.0
2018-Feb-11 12:30N 30°04' W 093°21'0 0.0
2018-Feb-11 12:01N 30°04' W 093°21'0 0.0
2018-Feb-11 11:30N 30°04' W 093°21'0 0.0
2018-Feb-11 11:00N 30°04' W 093°21'0 0.0
2018-Feb-11 10:30N 30°04' W 093°21'0 0.0
2018-Feb-11 10:00N 30°04' W 093°21'0 0.0
2018-Feb-11 09:30N 30°04' W 093°21'0 0.0
2018-Feb-11 09:00N 30°04' W 093°21'0 0.0
2018-Feb-11 08:30N 30°04' W 093°21'0 0.0
2018-Feb-11 08:00N 30°04' W 093°21'0 0.0
2018-Feb-11 07:30N 30°04' W 093°21'0 0.0
2018-Feb-11 07:00N 30°04' W 093°21'0 0.0
2018-Feb-11 06:30N 30°04' W 093°21'0 0.0
2018-Feb-11 06:00N 30°04' W 093°21'0 0.0
2018-Feb-11 05:30N 30°04' W 093°21'0 0.0
2018-Feb-11 05:00N 30°04' W 093°21'0 0.0
2018-Feb-11 04:30N 30°04' W 093°21'0 0.0
2018-Feb-11 04:00N 30°04' W 093°21'0 0.0
2018-Feb-11 03:30N 30°04' W 093°21'0 0.0
2018-Feb-11 03:00N 30°04' W 093°21'0 0.0
2018-Feb-11 02:30N 30°04' W 093°21'0 0.0
2018-Feb-11 02:00N 30°04' W 093°21'0 0.0
2018-Feb-11 01:30N 30°04' W 093°21'2 4.0
2018-Feb-11 01:00N 30°04' W 093°23'2 3.0
2018-Feb-11 00:30N 30°04' W 093°25'3 5.9
2018-Feb-11 00:00N 30°04' W 093°28'3 5.4
2018-Feb-10 23:31N 30°04' W 093°31'3 5.1
2018-Feb-10 23:00N 30°04' W 093°34'3 5.6
2018-Feb-10 22:29N 30°03' W 093°38'3 5.5
2018-Feb-10 22:00N 30°04' W 093°41'3 6.1
2018-Feb-10 21:31N 30°03' W 093°44'3 6.3
2018-Feb-10 21:01N 30°00' W 093°46'3 6.5
2018-Feb-10 20:30N 29°59' W 093°50'3 6.0
2018-Feb-10 20:01N 29°56' W 093°52'4 7.2
2018-Feb-10 19:30N 29°54' W 093°55'4 7.4
2018-Feb-10 19:00N 29°51' W 093°57'3 4.8
2018-Feb-10 18:29N 29°49' W 093°59'1 1.5
2018-Feb-10 18:00N 29°48' W 093°60'3 5.5
2018-Feb-10 17:30N 29°47' W 094°02'3 5.9
2018-Feb-10 17:01N 29°45' W 094°05'3 5.7
2018-Feb-10 16:31N 29°43' W 094°07'1 1.0
2018-Feb-10 16:00N 29°43' W 094°08'1 2.0
2018-Feb-10 15:30N 29°42' W 094°09'2 4.2
2018-Feb-10 15:01N 29°41' W 094°11'2 3.6
2018-Feb-10 14:31N 29°40' W 094°13'0 0.1
2018-Feb-10 14:01N 29°40' W 094°13'3 5.6
2018-Feb-10 13:30N 29°39' W 094°16'1 1.8
2018-Feb-10 12:55N 29°39' W 094°17'0 0.0
2018-Feb-10 12:29N 29°39' W 094°17'0 0.0
2018-Feb-10 12:01N 29°39' W 094°17'0 0.0
2018-Feb-10 11:27N 29°39' W 094°17'0 0.0
2018-Feb-10 10:59N 29°39' W 094°17'0 0.0
2018-Feb-10 10:22N 29°39' W 094°17'0 0.0
2018-Feb-10 10:00N 29°39' W 094°17'0 0.0
2018-Feb-10 09:30N 29°39' W 094°17'0 0.0
2018-Feb-10 08:59N 29°39' W 094°17'0 0.0
2018-Feb-10 08:20N 29°39' W 094°17'0 0.0
2018-Feb-10 07:48N 29°39' W 094°17'0 0.0
2018-Feb-10 07:30N 29°39' W 094°17'0 0.0
2018-Feb-10 06:26N 29°39' W 094°17'0 0.1
2018-Feb-10 05:58N 29°39' W 094°17'6 1.3
2018-Feb-10 01:35N 29°36' W 094°23'0 0.0
2018-Feb-10 01:28N 29°36' W 094°23'0 0.0
2018-Feb-10 01:00N 29°36' W 094°23'1 1.5
2018-Feb-10 00:28N 29°36' W 094°24'4 3.2
2018-Feb-09 23:22N 29°34' W 094°27'24 3.8
2018-Feb-09 17:00N 29°33' W 094°55'8 8.3
2018-Feb-09 16:00N 29°41' W 094°59'  

Dump ship's entire track history